Osan Air Base

RKSO | OSN

, Gyeonggi-do , Korea

Friday, September 20th, 2019 | 04:31

Weather

RKSO 191858Z 10003KT 7SM BKN200 15/13 A3001 RMK AO2A SLP165 T01480130 PNO $

Charts

No Charts Available

Gates

189 Available

Runways

2 Available

Events

No events for this airport


New event